createdAt,value
2023-01-29T00:00:24.609Z,102268.84
2023-01-29T00:04:26.158Z,102252.84
2023-01-29T00:08:27.614Z,102246.00
2023-01-29T00:12:29.085Z,102245.94
2023-01-29T00:16:30.570Z,102240.38
2023-01-29T00:20:32.092Z,102237.28
2023-01-29T00:24:33.566Z,102234.75
2023-01-29T00:28:35.019Z,102235.19
2023-01-29T00:32:36.496Z,102245.84
2023-01-29T00:36:37.999Z,102233.03
2023-01-29T00:40:58.784Z,102221.47
2023-01-29T00:45:00.292Z,102205.69
2023-01-29T00:49:01.861Z,102203.69
2023-01-29T00:53:03.377Z,102201.28
2023-01-29T00:57:04.826Z,102197.75
2023-01-29T01:01:06.376Z,102199.25
2023-01-29T01:05:13.960Z,102200.50
2023-01-29T01:09:34.185Z,102203.50
2023-01-29T01:13:35.703Z,102207.31
2023-01-29T01:17:37.212Z,102202.47
2023-01-29T01:21:38.656Z,102211.16
2023-01-29T01:25:40.250Z,102196.69
2023-01-29T01:29:41.797Z,102203.28
2023-01-29T01:33:43.242Z,102215.72
2023-01-29T01:37:44.675Z,102204.59
2023-01-29T01:41:46.461Z,102205.72
2023-01-29T01:45:48.420Z,102192.13
2023-01-29T01:49:50.134Z,102200.34
2023-01-29T01:54:09.420Z,102205.63
2023-01-29T01:58:16.733Z,102206.28
2023-01-29T02:02:37.036Z,102200.13
2023-01-29T02:06:58.744Z,102205.25
2023-01-29T02:11:01.156Z,102188.50
2023-01-29T02:15:02.743Z,102182.28
2023-01-29T02:19:22.234Z,102173.00
2023-01-29T02:23:32.891Z,102183.28
2023-01-29T02:27:59.487Z,102180.94
2023-01-29T02:32:07.100Z,102171.94
2023-01-29T02:36:38.739Z,102170.13
2023-01-29T02:40:46.923Z,102168.00
2023-01-29T02:45:04.530Z,102172.38
2023-01-29T02:49:08.934Z,102186.06
2023-01-29T02:53:19.189Z,102176.75
2023-01-29T02:57:29.551Z,102170.47
2023-01-29T03:01:39.925Z,102166.84
2023-01-29T03:06:06.303Z,102152.00
2023-01-29T03:10:16.142Z,102153.50
2023-01-29T03:14:58.814Z,102158.13
2023-01-29T03:19:13.573Z,102146.72
2023-01-29T03:23:50.568Z,102144.16
2023-01-29T03:28:20.944Z,102143.94
2023-01-29T03:32:26.505Z,102153.34
2023-01-29T03:36:55.762Z,102143.84
2023-01-29T03:41:05.840Z,102128.72
2023-01-29T03:45:09.976Z,102135.03
2023-01-29T03:49:34.536Z,102130.16
2023-01-29T03:53:58.724Z,102118.59
2023-01-29T03:58:24.253Z,102107.31
2023-01-29T04:02:31.940Z,102102.59
2023-01-29T04:06:37.523Z,102090.16
2023-01-29T04:10:42.117Z,102079.44
2023-01-29T04:14:45.898Z,102077.94
2023-01-29T04:18:48.441Z,102064.50
2023-01-29T04:22:52.522Z,102055.34
2023-01-29T04:27:23.574Z,102052.72
2023-01-29T04:31:30.754Z,102046.75
2023-01-29T04:35:54.693Z,102041.75
2023-01-29T04:40:08.996Z,102028.03
2023-01-29T04:44:16.201Z,102021.69
2023-01-29T04:48:32.887Z,102038.69
2023-01-29T04:52:49.148Z,102040.09
2023-01-29T04:57:11.293Z,102047.00
2023-01-29T05:01:16.508Z,102035.63
2023-01-29T05:05:20.150Z,102033.63
2023-01-29T05:09:23.225Z,102036.59
2023-01-29T05:13:26.793Z,102033.78
2023-01-29T05:17:28.820Z,102035.38
2023-01-29T05:21:30.338Z,102036.16
2023-01-29T05:25:33.438Z,102041.75
2023-01-29T05:29:34.953Z,102040.81
2023-01-29T05:33:38.478Z,102048.06
2023-01-29T05:37:39.976Z,102051.44
2023-01-29T05:41:41.421Z,102051.63
2023-01-29T05:45:43.330Z,102056.72
2023-01-29T05:49:44.771Z,102056.69
2023-01-29T05:53:46.231Z,102071.91
2023-01-29T05:57:47.658Z,102078.69
2023-01-29T06:01:49.104Z,102075.66
2023-01-29T06:05:50.608Z,102085.03
2023-01-29T06:09:52.100Z,102090.63
2023-01-29T06:13:53.756Z,102098.88
2023-01-29T06:17:56.074Z,102100.28
2023-01-29T06:21:57.602Z,102105.97
2023-01-29T06:26:03.565Z,102108.03
2023-01-29T06:30:06.199Z,102099.31
2023-01-29T06:34:08.259Z,102091.88
2023-01-29T06:38:09.696Z,102090.56
2023-01-29T06:42:11.132Z,102096.91
2023-01-29T06:46:12.625Z,102095.59
2023-01-29T06:50:14.172Z,102103.41
2023-01-29T06:54:15.791Z,102104.81
2023-01-29T06:58:17.255Z,102110.31
2023-01-29T07:02:18.750Z,102109.09
2023-01-29T07:06:20.187Z,102100.03
2023-01-29T07:10:21.653Z,102106.47
2023-01-29T07:14:23.135Z,102106.63
2023-01-29T07:18:24.602Z,102104.41
2023-01-29T07:22:26.057Z,102098.38
2023-01-29T07:26:27.626Z,102088.53
2023-01-29T07:30:29.546Z,102090.78
2023-01-29T07:34:31.129Z,102100.59
2023-01-29T07:38:32.592Z,102105.84
2023-01-29T07:42:34.041Z,102095.13
2023-01-29T07:46:35.571Z,102097.16
2023-01-29T07:50:37.898Z,102080.66
2023-01-29T07:54:39.368Z,102073.34
2023-01-29T07:58:40.816Z,102068.19
2023-01-29T08:02:42.305Z,102056.91
2023-01-29T08:06:43.903Z,102055.63
2023-01-29T08:10:45.349Z,102076.81
2023-01-29T08:14:46.881Z,102056.28
2023-01-29T08:18:48.859Z,102057.59
2023-01-29T08:22:50.294Z,102057.28
2023-01-29T08:26:52.001Z,102057.28
2023-01-29T08:30:53.827Z,102058.81
2023-01-29T08:34:55.313Z,102053.81
2023-01-29T08:38:56.745Z,102054.00
2023-01-29T08:43:07.827Z,102055.59
2023-01-29T08:47:10.567Z,102061.69
2023-01-29T08:51:12.802Z,102054.25
2023-01-29T08:55:14.649Z,102060.41
2023-01-29T08:59:16.356Z,102063.69
2023-01-29T09:03:17.834Z,102063.72
2023-01-29T09:07:21.728Z,102048.06
2023-01-29T09:11:23.190Z,102049.50
2023-01-29T09:15:25.231Z,102039.69
2023-01-29T09:19:26.639Z,102043.91
2023-01-29T09:23:29.210Z,102041.47
2023-01-29T09:27:30.743Z,102032.44
2023-01-29T09:31:32.317Z,102045.25
2023-01-29T09:35:34.499Z,102031.66
2023-01-29T09:39:35.931Z,102038.91
2023-01-29T09:43:48.192Z,102029.41
2023-01-29T09:47:49.726Z,102032.31
2023-01-29T09:52:01.277Z,102018.25
2023-01-29T09:56:06.167Z,101999.13
2023-01-29T10:00:20.536Z,101997.03
2023-01-29T10:04:31.353Z,101993.84
2023-01-29T10:08:51.057Z,101981.94
2023-01-29T10:13:06.897Z,101971.47
2023-01-29T10:17:40.286Z,101960.53
2023-01-29T10:21:50.813Z,101949.41
2023-01-29T10:25:53.878Z,101930.84
2023-01-29T10:29:56.177Z,101943.50
2023-01-29T10:34:04.599Z,101949.94
2023-01-29T10:38:15.719Z,101945.63
2023-01-29T10:42:20.557Z,101947.84
2023-01-29T10:46:46.016Z,101941.91
2023-01-29T10:50:54.680Z,101916.50
2023-01-29T10:55:22.350Z,101914.59
2023-01-29T10:59:26.619Z,101908.81
2023-01-29T11:03:32.761Z,101915.69
2023-01-29T11:07:34.381Z,101894.59
2023-01-29T11:11:52.537Z,101890.78
2023-01-29T11:15:54.031Z,101879.81
2023-01-29T11:19:55.863Z,101873.28
2023-01-29T11:24:16.918Z,101873.25
2023-01-29T11:28:36.223Z,101875.47
2023-01-29T11:32:37.793Z,101865.03
2023-01-29T11:36:39.931Z,101851.06
2023-01-29T11:40:41.837Z,101853.31
2023-01-29T11:44:43.304Z,101844.47
2023-01-29T11:48:50.229Z,101842.88
2023-01-29T11:52:51.955Z,101840.16
2023-01-29T11:56:54.367Z,101832.81
2023-01-29T12:00:58.352Z,101816.59
2023-01-29T12:05:06.065Z,101816.84
2023-01-29T12:09:16.711Z,101819.22
2023-01-29T12:13:26.609Z,101813.56
2023-01-29T12:17:33.535Z,101796.59
2023-01-29T12:21:37.636Z,101793.34
2023-01-29T12:25:50.518Z,101793.81
2023-01-29T12:30:20.995Z,101794.94
2023-01-29T12:34:59.859Z,101776.59
2023-01-29T12:39:01.559Z,101770.88
2023-01-29T12:43:13.905Z,101770.06
2023-01-29T12:47:23.156Z,101753.09
2023-01-29T12:51:31.422Z,101741.88
2023-01-29T12:55:38.467Z,101744.53
2023-01-29T12:59:45.349Z,101736.66
2023-01-29T13:03:55.477Z,101745.13
2023-01-29T13:08:21.719Z,101749.28
2023-01-29T13:12:24.409Z,101745.38
2023-01-29T13:16:30.406Z,101743.47
2023-01-29T13:20:35.200Z,101735.84
2023-01-29T13:24:42.309Z,101733.56
2023-01-29T13:28:45.753Z,101727.56
2023-01-29T13:32:52.770Z,101735.00
2023-01-29T13:37:01.497Z,101722.72
2023-01-29T13:41:10.262Z,101732.56
2023-01-29T13:45:21.388Z,101716.09
2023-01-29T13:49:31.151Z,101723.84
2023-01-29T13:53:40.048Z,101724.91
2023-01-29T13:57:44.700Z,101715.13
2023-01-29T14:01:49.004Z,101722.03
2023-01-29T14:05:53.445Z,101715.44
2023-01-29T14:10:14.558Z,101712.97
2023-01-29T14:14:48.128Z,101713.84
2023-01-29T14:19:00.219Z,101703.19
2023-01-29T14:23:04.156Z,101704.84
2023-01-29T14:27:05.728Z,101696.38
2023-01-29T14:31:07.710Z,101701.03
2023-01-29T14:35:21.923Z,101702.72
2023-01-29T14:39:43.929Z,101706.00
2023-01-29T14:43:45.370Z,101708.44
2023-01-29T14:47:46.781Z,101701.63
2023-01-29T14:51:48.616Z,101708.72
2023-01-29T14:56:15.189Z,101681.97
2023-01-29T15:00:26.648Z,101691.53
2023-01-29T15:04:38.023Z,101684.72
2023-01-29T15:08:45.557Z,101687.72
2023-01-29T15:13:00.473Z,101683.03
2023-01-29T15:17:20.649Z,101678.41
2023-01-29T15:21:22.333Z,101678.13
2023-01-29T15:25:24.365Z,101672.13
2023-01-29T15:29:27.980Z,101667.75
2023-01-29T15:33:31.194Z,101660.41
2023-01-29T15:37:35.365Z,101650.56
2023-01-29T15:41:37.213Z,101654.38
2023-01-29T15:45:40.703Z,101654.13
2023-01-29T15:49:42.471Z,101642.63
2023-01-29T15:53:47.496Z,101641.25
2023-01-29T15:57:50.107Z,101641.00
2023-01-29T16:01:52.372Z,101641.25
2023-01-29T16:05:54.981Z,101627.59
2023-01-29T16:09:57.519Z,101617.78
2023-01-29T16:13:59.572Z,101632.00
2023-01-29T16:18:04.269Z,101630.06
2023-01-29T16:22:08.470Z,101618.59
2023-01-29T16:26:17.162Z,101623.53
2023-01-29T16:30:19.014Z,101616.16
2023-01-29T16:34:28.219Z,101607.97
2023-01-29T16:38:34.691Z,101603.59
2023-01-29T16:42:37.711Z,101617.81
2023-01-29T16:46:46.520Z,101607.16
2023-01-29T16:50:54.896Z,101602.22
2023-01-29T16:55:21.176Z,101590.78
2023-01-29T16:59:34.585Z,101603.31
2023-01-29T17:03:37.306Z,101596.50
2023-01-29T17:07:38.919Z,101593.22
2023-01-29T17:11:41.750Z,101601.69
2023-01-29T17:15:46.753Z,101582.00
2023-01-29T17:19:48.383Z,101570.84
2023-01-29T17:23:50.114Z,101574.06
2023-01-29T17:27:52.150Z,101574.13
2023-01-29T17:31:53.764Z,101563.94
2023-01-29T17:35:55.342Z,101562.38
2023-01-29T17:39:56.871Z,101543.78
2023-01-29T17:43:58.372Z,101546.47
2023-01-29T17:47:59.916Z,101535.00
2023-01-29T17:52:01.500Z,101525.50
2023-01-29T17:56:03.136Z,101515.38
2023-01-29T18:00:13.770Z,101503.91
2023-01-29T18:04:15.531Z,101498.41
2023-01-29T18:08:26.586Z,101493.28
2023-01-29T18:12:28.146Z,101495.41
2023-01-29T18:16:36.467Z,101480.69
2023-01-29T18:20:38.468Z,101479.88
2023-01-29T18:24:40.246Z,101460.72
2023-01-29T18:28:43.592Z,101455.28
2023-01-29T18:32:47.140Z,101453.59
2023-01-29T18:36:48.885Z,101463.50
2023-01-29T18:40:50.356Z,101457.44
2023-01-29T18:44:51.930Z,101451.19
2023-01-29T18:48:53.491Z,101441.94
2023-01-29T18:52:55.031Z,101451.22
2023-01-29T18:57:08.257Z,101441.94
2023-01-29T19:01:15.582Z,101443.28
2023-01-29T19:05:19.287Z,101441.59
2023-01-29T19:09:21.152Z,101444.94
2023-01-29T19:13:22.594Z,101442.25
2023-01-29T19:17:24.228Z,101434.59
2023-01-29T19:21:25.778Z,101415.47
2023-01-29T19:25:27.311Z,101407.56
2023-01-29T19:29:28.839Z,101393.91
2023-01-29T19:33:30.383Z,101385.94
2023-01-29T19:37:31.954Z,101376.06
2023-01-29T19:41:33.610Z,101386.53
2023-01-29T19:45:49.071Z,101382.16
2023-01-29T19:49:51.953Z,101359.66
2023-01-29T19:53:53.605Z,101354.50
2023-01-29T19:57:57.038Z,101348.78
2023-01-29T20:01:58.598Z,101346.06
2023-01-29T20:06:05.559Z,101338.97
2023-01-29T20:10:11.248Z,101341.72
2023-01-29T20:14:12.840Z,101314.66
2023-01-29T20:18:15.482Z,101317.34
2023-01-29T20:22:17.111Z,101314.09
2023-01-29T20:26:19.322Z,101295.03
2023-01-29T20:30:21.113Z,101292.34
2023-01-29T20:34:23.995Z,101288.56
2023-01-29T20:38:30.312Z,101288.63
2023-01-29T20:42:31.901Z,101275.78
2023-01-29T20:46:35.209Z,101264.53
2023-01-29T20:50:37.871Z,101249.81
2023-01-29T20:54:40.098Z,101242.41
2023-01-29T20:58:41.903Z,101230.34
2023-01-29T21:02:45.776Z,101236.94
2023-01-29T21:06:47.373Z,101234.50
2023-01-29T21:10:49.686Z,101220.59
2023-01-29T21:14:51.259Z,101208.69
2023-01-29T21:18:56.274Z,101203.25
2023-01-29T21:22:57.896Z,101195.59
2023-01-29T21:26:59.353Z,101176.75
2023-01-29T21:31:10.025Z,101187.41
2023-01-29T21:35:11.569Z,101168.59
2023-01-29T21:39:20.831Z,101167.75
2023-01-29T21:43:22.305Z,101162.31
2023-01-29T21:47:23.851Z,101148.66
2023-01-29T21:51:25.400Z,101140.38
2023-01-29T21:55:26.927Z,101133.97
2023-01-29T21:59:28.444Z,101137.25
2023-01-29T22:03:30.048Z,101121.06
2023-01-29T22:07:31.657Z,101134.16
2023-01-29T22:11:33.180Z,101117.81
2023-01-29T22:15:34.816Z,101100.88
2023-01-29T22:19:36.292Z,101113.44
2023-01-29T22:23:38.000Z,101090.81
2023-01-29T22:27:39.485Z,101106.16
2023-01-29T22:31:40.958Z,101088.94
2023-01-29T22:35:42.422Z,101065.94
2023-01-29T22:39:43.871Z,101049.56
2023-01-29T22:43:45.328Z,101044.50
2023-01-29T22:47:46.809Z,101053.16
2023-01-29T22:51:48.383Z,101035.94
2023-01-29T22:55:56.077Z,101051.81
2023-01-29T22:59:57.542Z,101015.09
2023-01-29T23:03:59.031Z,100994.00
2023-01-29T23:08:00.477Z,100995.00
2023-01-29T23:12:02.053Z,100968.03
2023-01-29T23:16:03.707Z,100970.50
2023-01-29T23:20:05.859Z,100977.75
2023-01-29T23:24:08.368Z,100953.31
2023-01-29T23:28:09.885Z,100953.06
2023-01-29T23:32:14.159Z,100951.53
2023-01-29T23:36:15.635Z,100932.94
2023-01-29T23:40:17.719Z,100944.59
2023-01-29T23:44:20.278Z,100930.50
2023-01-29T23:48:22.452Z,100920.19
2023-01-29T23:52:23.910Z,100923.53
2023-01-29T23:56:25.370Z,100900.88
